createdAt,value
2022-12-31T00:00:10.426Z,6.58
2022-12-31T00:03:35.735Z,6.52
2022-12-31T00:06:41.172Z,6.58
2022-12-31T00:09:44.774Z,6.49
2022-12-31T00:12:48.701Z,6.56
2022-12-31T00:15:52.713Z,6.70
2022-12-31T00:19:00.240Z,6.77
2022-12-31T00:22:05.768Z,6.56
2022-12-31T00:25:11.190Z,6.50
2022-12-31T00:28:14.736Z,6.37
2022-12-31T00:31:21.542Z,6.14
2022-12-31T00:34:29.403Z,6.40
2022-12-31T00:37:34.903Z,6.40
2022-12-31T00:40:40.314Z,6.39
2022-12-31T00:43:45.289Z,6.14
2022-12-31T00:46:50.693Z,6.00
2022-12-31T00:49:56.937Z,5.76
2022-12-31T00:53:02.273Z,6.10
2022-12-31T00:56:12.962Z,6.25
2022-12-31T00:59:19.447Z,6.25
2022-12-31T01:02:24.551Z,6.08
2022-12-31T01:05:28.244Z,6.29
2022-12-31T01:08:35.963Z,6.37
2022-12-31T01:11:59.494Z,6.37
2022-12-31T01:15:04.591Z,6.33
2022-12-31T01:18:09.692Z,6.33
2022-12-31T01:21:15.832Z,6.09
2022-12-31T01:24:22.399Z,5.78
2022-12-31T01:27:26.453Z,5.88
2022-12-31T01:30:35.131Z,5.99
2022-12-31T01:33:43.696Z,5.74
2022-12-31T01:36:48.001Z,5.93
2022-12-31T01:39:55.496Z,6.03
2022-12-31T01:43:00.142Z,6.08
2022-12-31T01:46:08.750Z,5.84
2022-12-31T01:49:18.473Z,5.93
2022-12-31T01:52:27.228Z,5.76
2022-12-31T01:55:39.676Z,5.76
2022-12-31T01:58:50.898Z,5.98
2022-12-31T02:01:56.157Z,5.85
2022-12-31T02:05:04.324Z,5.72
2022-12-31T02:08:08.234Z,5.48
2022-12-31T02:11:27.700Z,5.48
2022-12-31T02:14:37.171Z,5.51
2022-12-31T02:17:49.277Z,5.73
2022-12-31T02:21:16.798Z,5.45
2022-12-31T02:25:05.360Z,5.51
2022-12-31T02:28:28.906Z,5.13
2022-12-31T02:31:38.680Z,5.31
2022-12-31T02:34:49.097Z,5.23
2022-12-31T02:38:00.235Z,5.41
2022-12-31T02:41:04.306Z,5.58
2022-12-31T02:44:23.066Z,5.43
2022-12-31T02:47:41.582Z,5.29
2022-12-31T02:50:59.174Z,5.33
2022-12-31T02:54:21.250Z,5.07
2022-12-31T02:57:35.701Z,5.55
2022-12-31T03:01:04.073Z,5.01
2022-12-31T03:04:25.008Z,5.12
2022-12-31T03:07:36.420Z,4.96
2022-12-31T03:10:42.798Z,4.99
2022-12-31T03:13:45.263Z,5.08
2022-12-31T03:16:50.672Z,4.98
2022-12-31T03:20:15.333Z,5.18
2022-12-31T03:23:26.526Z,5.44
2022-12-31T03:26:29.180Z,5.34
2022-12-31T03:29:33.474Z,5.16
2022-12-31T03:32:37.422Z,5.35
2022-12-31T03:35:44.432Z,5.01
2022-12-31T03:38:52.703Z,5.04
2022-12-31T03:41:56.772Z,5.09
2022-12-31T03:45:00.558Z,5.12
2022-12-31T03:48:07.059Z,4.83
2022-12-31T03:51:13.629Z,5.09
2022-12-31T03:54:19.199Z,5.16
2022-12-31T03:57:22.792Z,5.24
2022-12-31T04:00:27.205Z,5.28
2022-12-31T04:03:30.667Z,5.42
2022-12-31T04:06:37.221Z,5.32
2022-12-31T04:09:41.240Z,5.08
2022-12-31T04:12:45.882Z,5.42
2022-12-31T04:15:52.262Z,5.27
2022-12-31T04:19:01.284Z,5.24
2022-12-31T04:22:06.845Z,5.24
2022-12-31T04:25:12.113Z,5.17
2022-12-31T04:28:16.839Z,4.94
2022-12-31T04:31:20.805Z,5.13
2022-12-31T04:34:24.327Z,5.15
2022-12-31T04:37:31.722Z,5.24
2022-12-31T04:40:56.453Z,5.16
2022-12-31T04:44:01.301Z,5.29
2022-12-31T04:47:05.149Z,5.05
2022-12-31T04:50:09.540Z,5.12
2022-12-31T04:53:14.551Z,4.88
2022-12-31T04:56:18.596Z,5.18
2022-12-31T04:59:22.118Z,5.02
2022-12-31T05:02:27.423Z,4.75
2022-12-31T05:05:31.493Z,4.93
2022-12-31T05:08:42.253Z,4.97
2022-12-31T05:11:46.473Z,4.79
2022-12-31T05:14:52.082Z,5.08
2022-12-31T05:17:55.791Z,4.92
2022-12-31T05:21:03.739Z,4.95
2022-12-31T05:24:09.622Z,5.20
2022-12-31T05:27:13.741Z,5.23
2022-12-31T05:30:18.699Z,4.92
2022-12-31T05:33:23.079Z,5.01
2022-12-31T05:36:26.761Z,5.24
2022-12-31T05:39:32.336Z,5.19
2022-12-31T05:42:36.418Z,5.15
2022-12-31T05:45:40.922Z,4.93
2022-12-31T05:48:44.373Z,4.87
2022-12-31T05:51:49.276Z,4.55
2022-12-31T05:54:54.565Z,4.65
2022-12-31T05:57:58.299Z,4.83
2022-12-31T06:01:04.278Z,4.56
2022-12-31T06:04:09.387Z,4.64
2022-12-31T06:07:14.596Z,4.95
2022-12-31T06:10:20.025Z,5.04
2022-12-31T06:13:23.619Z,4.85
2022-12-31T06:16:28.871Z,4.95
2022-12-31T06:19:32.723Z,4.93
2022-12-31T06:22:37.184Z,5.11
2022-12-31T06:25:44.265Z,5.17
2022-12-31T06:28:51.357Z,5.10
2022-12-31T06:31:56.886Z,4.95
2022-12-31T06:35:00.972Z,5.09
2022-12-31T06:38:05.893Z,4.94
2022-12-31T06:41:16.109Z,4.97
2022-12-31T06:44:22.420Z,4.88
2022-12-31T06:47:29.664Z,5.00
2022-12-31T06:50:33.339Z,4.98
2022-12-31T06:53:38.947Z,4.80
2022-12-31T06:57:03.151Z,4.92
2022-12-31T07:00:11.355Z,4.55
2022-12-31T07:03:30.889Z,4.68
2022-12-31T07:06:45.148Z,4.84
2022-12-31T07:10:01.032Z,4.92
2022-12-31T07:13:37.364Z,4.98
2022-12-31T07:16:57.596Z,4.85
2022-12-31T07:20:07.186Z,5.22
2022-12-31T07:23:12.397Z,5.49
2022-12-31T07:26:28.693Z,5.71
2022-12-31T07:29:47.700Z,5.75
2022-12-31T07:33:13.334Z,5.95
2022-12-31T07:36:33.457Z,6.00
2022-12-31T07:39:43.479Z,6.21
2022-12-31T07:43:05.735Z,6.34
2022-12-31T07:46:18.663Z,6.41
2022-12-31T07:49:25.100Z,6.41
2022-12-31T07:52:29.757Z,6.51
2022-12-31T07:55:35.303Z,6.68
2022-12-31T07:58:55.795Z,6.76
2022-12-31T08:02:30.361Z,6.70
2022-12-31T08:05:47.622Z,6.84
2022-12-31T08:09:01.964Z,6.96
2022-12-31T08:12:11.375Z,7.09
2022-12-31T08:15:16.968Z,7.14
2022-12-31T08:18:23.460Z,7.32
2022-12-31T08:21:52.253Z,7.44
2022-12-31T08:25:12.721Z,7.21
2022-12-31T08:28:28.404Z,7.23
2022-12-31T08:31:45.315Z,7.22
2022-12-31T08:35:01.032Z,7.43
2022-12-31T08:38:18.907Z,7.45
2022-12-31T08:41:30.487Z,7.64
2022-12-31T08:44:41.508Z,7.65
2022-12-31T08:47:59.886Z,7.82
2022-12-31T08:51:19.103Z,7.97
2022-12-31T08:54:23.560Z,8.09
2022-12-31T08:57:34.768Z,8.13
2022-12-31T09:00:41.909Z,8.30
2022-12-31T09:04:05.675Z,8.42
2022-12-31T09:07:15.430Z,8.54
2022-12-31T09:10:26.007Z,8.62
2022-12-31T09:13:39.096Z,8.77
2022-12-31T09:16:55.646Z,8.88
2022-12-31T09:20:00.342Z,8.97
2022-12-31T09:23:07.267Z,9.05
2022-12-31T09:26:37.128Z,9.14
2022-12-31T09:29:50.267Z,9.24
2022-12-31T09:33:02.713Z,9.39
2022-12-31T09:36:09.380Z,9.52
2022-12-31T09:39:18.296Z,9.66
2022-12-31T09:42:49.962Z,9.84
2022-12-31T09:46:19.220Z,10.10
2022-12-31T09:49:56.538Z,10.29
2022-12-31T09:53:21.541Z,10.54
2022-12-31T09:56:32.973Z,10.72
2022-12-31T09:59:44.032Z,10.88
2022-12-31T10:03:08.627Z,10.99
2022-12-31T10:06:27.155Z,11.14
2022-12-31T10:09:44.684Z,11.25
2022-12-31T10:13:11.818Z,11.38
2022-12-31T10:16:42.737Z,11.50
2022-12-31T10:20:10.120Z,11.57
2022-12-31T10:23:28.013Z,11.72
2022-12-31T10:26:53.873Z,11.82
2022-12-31T10:30:13.294Z,11.97
2022-12-31T10:33:26.052Z,12.08
2022-12-31T10:36:48.734Z,12.17
2022-12-31T10:40:06.792Z,12.27
2022-12-31T10:43:44.156Z,12.36
2022-12-31T10:47:04.018Z,12.43
2022-12-31T10:50:46.389Z,12.46
2022-12-31T10:54:17.099Z,12.46
2022-12-31T10:58:04.291Z,12.45
2022-12-31T11:01:20.045Z,12.44
2022-12-31T11:04:58.854Z,12.46
2022-12-31T11:08:19.411Z,12.48
2022-12-31T11:11:33.047Z,12.51
2022-12-31T11:14:52.202Z,12.51
2022-12-31T11:18:07.209Z,12.54
2022-12-31T11:21:41.329Z,12.52
2022-12-31T11:25:07.996Z,12.56
2022-12-31T11:28:32.254Z,12.58
2022-12-31T11:32:05.272Z,12.59
2022-12-31T11:35:23.533Z,12.58
2022-12-31T11:38:32.092Z,12.65
2022-12-31T11:41:44.429Z,12.64
2022-12-31T11:44:55.412Z,12.71
2022-12-31T11:48:30.295Z,12.74
2022-12-31T11:51:50.810Z,12.70
2022-12-31T11:55:13.675Z,12.78
2022-12-31T11:58:23.348Z,12.83
2022-12-31T12:01:33.350Z,12.85
2022-12-31T12:04:38.048Z,12.88
2022-12-31T12:07:44.300Z,12.91
2022-12-31T12:11:05.113Z,12.96
2022-12-31T12:14:21.320Z,12.96
2022-12-31T12:17:52.802Z,12.98
2022-12-31T12:21:14.032Z,13.05
2022-12-31T12:24:31.102Z,13.08
2022-12-31T12:27:40.911Z,13.11
2022-12-31T12:30:47.125Z,13.12
2022-12-31T12:33:57.027Z,13.14
2022-12-31T12:37:03.673Z,13.19
2022-12-31T12:40:19.983Z,13.26
2022-12-31T12:43:28.948Z,13.28
2022-12-31T12:46:35.840Z,13.32
2022-12-31T12:49:44.596Z,13.33
2022-12-31T12:53:15.607Z,13.30
2022-12-31T12:56:31.826Z,13.37
2022-12-31T12:59:54.615Z,13.33
2022-12-31T13:03:48.739Z,13.38
2022-12-31T13:07:18.185Z,13.39
2022-12-31T13:10:41.642Z,13.41
2022-12-31T13:13:54.067Z,13.46
2022-12-31T13:17:10.183Z,13.45
2022-12-31T13:20:25.160Z,13.45
2022-12-31T13:23:39.875Z,13.45
2022-12-31T13:26:53.927Z,13.48
2022-12-31T13:30:03.588Z,13.48
2022-12-31T13:33:17.440Z,13.47
2022-12-31T13:36:26.316Z,13.52
2022-12-31T13:39:34.881Z,13.57
2022-12-31T13:42:50.162Z,13.51
2022-12-31T13:46:04.785Z,13.49
2022-12-31T13:49:29.751Z,13.50
2022-12-31T13:52:37.768Z,13.49
2022-12-31T13:55:46.307Z,13.47
2022-12-31T13:58:56.049Z,13.44
2022-12-31T14:02:11.147Z,13.41
2022-12-31T14:05:29.727Z,13.38
2022-12-31T14:08:34.016Z,13.37
2022-12-31T14:11:54.852Z,13.33
2022-12-31T14:15:09.796Z,13.36
2022-12-31T14:18:21.825Z,13.33
2022-12-31T14:21:34.123Z,13.29
2022-12-31T14:24:48.742Z,13.23
2022-12-31T14:28:01.717Z,13.22
2022-12-31T14:31:24.371Z,13.16
2022-12-31T14:34:44.607Z,13.15
2022-12-31T14:37:59.376Z,13.10
2022-12-31T14:41:22.781Z,13.08
2022-12-31T14:44:36.956Z,13.03
2022-12-31T14:47:52.442Z,12.96
2022-12-31T14:50:56.878Z,12.91
2022-12-31T14:54:05.887Z,12.84
2022-12-31T14:57:12.561Z,12.75
2022-12-31T15:00:33.487Z,12.60
2022-12-31T15:03:45.908Z,12.54
2022-12-31T15:06:59.984Z,12.44
2022-12-31T15:10:18.049Z,12.35
2022-12-31T15:13:39.339Z,12.29
2022-12-31T15:16:53.772Z,12.18
2022-12-31T15:20:37.592Z,12.02
2022-12-31T15:23:45.742Z,11.93
2022-12-31T15:26:54.250Z,11.82
2022-12-31T15:29:59.015Z,11.71
2022-12-31T15:33:31.668Z,11.64
2022-12-31T16:01:18.803Z,10.68
2022-12-31T16:04:26.758Z,10.30
2022-12-31T16:07:36.841Z,10.33
2022-12-31T16:10:45.455Z,10.29
2022-12-31T16:13:52.035Z,10.18
2022-12-31T16:16:59.595Z,10.02
2022-12-31T16:20:21.533Z,9.96
2022-12-31T16:23:27.708Z,10.02
2022-12-31T16:26:38.399Z,10.04
2022-12-31T16:29:50.626Z,10.11
2022-12-31T16:33:02.693Z,9.84
2022-12-31T16:36:06.962Z,9.77
2022-12-31T16:39:27.670Z,9.79
2022-12-31T16:42:31.978Z,9.53
2022-12-31T16:45:37.170Z,9.64
2022-12-31T16:48:47.488Z,9.56
2022-12-31T16:51:51.252Z,9.59
2022-12-31T16:54:57.066Z,9.61
2022-12-31T16:58:06.279Z,9.45
2022-12-31T17:01:19.751Z,9.36
2022-12-31T17:04:34.670Z,9.40
2022-12-31T17:07:41.876Z,9.20
2022-12-31T17:10:48.778Z,9.33
2022-12-31T17:13:58.798Z,9.46
2022-12-31T17:17:05.129Z,9.36
2022-12-31T17:20:24.159Z,9.40
2022-12-31T17:23:32.727Z,9.43
2022-12-31T17:26:39.604Z,9.22
2022-12-31T17:29:51.639Z,9.04
2022-12-31T17:33:01.553Z,9.03
2022-12-31T17:36:25.193Z,9.02
2022-12-31T17:39:43.584Z,8.76
2022-12-31T17:42:47.716Z,8.91
2022-12-31T17:45:53.201Z,8.96
2022-12-31T17:49:01.962Z,8.68
2022-12-31T17:52:13.348Z,8.66
2022-12-31T17:55:17.502Z,8.73
2022-12-31T17:58:29.765Z,8.67
2022-12-31T18:01:34.346Z,8.53
2022-12-31T18:04:38.972Z,8.37
2022-12-31T18:07:44.693Z,8.08
2022-12-31T18:10:49.973Z,8.34
2022-12-31T18:13:54.954Z,8.35
2022-12-31T18:16:59.195Z,8.52
2022-12-31T18:20:08.351Z,8.33
2022-12-31T18:23:24.729Z,8.35
2022-12-31T18:26:28.841Z,8.27
2022-12-31T18:29:34.143Z,8.08
2022-12-31T18:32:39.786Z,8.08
2022-12-31T18:39:10.521Z,8.05
2022-12-31T18:42:17.064Z,8.11
2022-12-31T18:45:25.300Z,8.19
2022-12-31T18:48:29.970Z,8.31
2022-12-31T18:51:37.874Z,8.44
2022-12-31T18:54:46.756Z,8.28
2022-12-31T18:57:51.427Z,7.95
2022-12-31T19:00:55.807Z,7.52
2022-12-31T19:04:04.416Z,7.82
2022-12-31T19:07:09.547Z,7.92
2022-12-31T19:10:17.198Z,7.86
2022-12-31T19:13:23.399Z,8.02
2022-12-31T19:16:30.527Z,7.75
2022-12-31T19:19:42.894Z,8.02
2022-12-31T19:22:47.656Z,7.87
2022-12-31T19:26:02.778Z,7.78
2022-12-31T19:29:07.574Z,7.75
2022-12-31T19:32:11.778Z,7.87
2022-12-31T19:35:17.261Z,7.75
2022-12-31T19:38:24.161Z,7.67
2022-12-31T19:41:30.634Z,7.35
2022-12-31T19:44:35.999Z,7.30
2022-12-31T19:47:42.063Z,6.99
2022-12-31T19:50:49.086Z,7.13
2022-12-31T19:53:54.661Z,7.01
2022-12-31T19:56:59.772Z,7.31
2022-12-31T20:00:03.317Z,7.35
2022-12-31T20:03:18.929Z,7.39
2022-12-31T20:06:25.697Z,7.21
2022-12-31T20:09:30.817Z,7.35
2022-12-31T20:12:44.401Z,7.55
2022-12-31T20:15:49.300Z,7.63
2022-12-31T20:18:52.948Z,7.77
2022-12-31T20:22:02.292Z,7.72
2022-12-31T20:25:06.644Z,7.24
2022-12-31T20:28:14.249Z,6.85
2022-12-31T20:31:23.852Z,7.10
2022-12-31T20:34:29.343Z,7.23
2022-12-31T20:37:32.900Z,7.43
2022-12-31T20:40:41.433Z,7.39
2022-12-31T20:43:52.190Z,7.28
2022-12-31T20:46:59.631Z,7.36
2022-12-31T20:50:13.402Z,7.28
2022-12-31T20:53:18.201Z,7.28
2022-12-31T20:56:21.744Z,7.08
2022-12-31T20:59:29.223Z,6.96
2022-12-31T21:02:41.429Z,7.04
2022-12-31T21:05:51.577Z,7.07
2022-12-31T21:08:56.241Z,7.11
2022-12-31T21:12:18.956Z,6.91
2022-12-31T21:15:23.882Z,6.73
2022-12-31T21:18:27.897Z,6.84
2022-12-31T21:21:31.695Z,6.79
2022-12-31T21:24:43.288Z,6.91
2022-12-31T21:27:46.742Z,6.72
2022-12-31T21:30:58.402Z,7.00
2022-12-31T21:34:03.552Z,6.79
2022-12-31T21:37:08.446Z,6.74
2022-12-31T21:40:37.633Z,6.60
2022-12-31T21:43:42.384Z,6.69
2022-12-31T21:47:24.884Z,6.50
2022-12-31T21:50:14.927Z,6.55
2022-12-31T21:53:24.768Z,6.77
2022-12-31T21:56:29.737Z,6.77
2022-12-31T21:59:48.953Z,6.84
2022-12-31T22:03:21.987Z,6.79
2022-12-31T22:06:26.057Z,6.65
2022-12-31T22:10:24.066Z,6.73
2022-12-31T22:13:27.925Z,6.68
2022-12-31T22:16:32.361Z,6.64
2022-12-31T22:20:00.938Z,6.49
2022-12-31T22:23:10.495Z,6.82
2022-12-31T22:26:20.833Z,6.82
2022-12-31T22:29:29.229Z,6.80
2022-12-31T22:32:33.280Z,6.64
2022-12-31T22:35:42.744Z,6.44
2022-12-31T22:38:49.139Z,6.39
2022-12-31T22:41:55.215Z,6.59
2022-12-31T22:45:02.449Z,6.68
2022-12-31T22:48:09.930Z,6.79
2022-12-31T22:51:17.837Z,6.82
2022-12-31T22:54:21.944Z,6.86
2022-12-31T22:57:30.993Z,6.37
2022-12-31T23:00:40.290Z,6.53
2022-12-31T23:03:50.682Z,6.56
2022-12-31T23:06:56.390Z,6.68
2022-12-31T23:10:17.234Z,6.68
2022-12-31T23:13:39.855Z,6.45
2022-12-31T23:17:29.854Z,6.50
2022-12-31T23:20:46.787Z,6.36
2022-12-31T23:23:56.265Z,6.41
2022-12-31T23:27:01.801Z,6.14
2022-12-31T23:30:06.257Z,6.11
2022-12-31T23:37:56.276Z,6.21
2022-12-31T23:41:12.984Z,6.27
2022-12-31T23:44:16.591Z,6.15
2022-12-31T23:47:26.300Z,5.95
2022-12-31T23:50:30.309Z,5.95
2022-12-31T23:53:34.627Z,6.11
2022-12-31T23:56:42.417Z,6.20
2022-12-31T23:59:46.747Z,6.06
